Time,TemperatureF,DewpointF,PressureIn,WindDirection,WindDirectionDegrees,WindSpeedMPH,WindSpeedGustMPH,Humidity,HourlyPrecipIn,Conditions,Clouds,dailyrainin,SolarRadiationWatts/m^2,SoftwareType,DateUTC
2013-08-25 00:42:00,78.0,62.0,-100.00,North,9,0.0,0.0,57,0.00,,,0.00,26.000000,,2013-08-25 00:42:00,
2013-08-25 01:22:00,74.0,62.0,-100.00,SE,137,1.0,2.0,67,0.00,,,0.00,6.000000,,2013-08-25 01:22:00,
2013-08-25 01:32:00,74.0,62.0,-100.00,SE,137,1.0,2.0,67,0.00,,,0.00,6.000000,,2013-08-25 01:32:00,
2013-08-25 01:42:00,74.0,62.0,-100.00,SE,137,1.0,2.0,67,0.00,,,0.00,6.000000,,2013-08-25 01:42:00,
2013-08-25 02:11:00,71.0,62.0,-100.00,East,98,1.0,2.0,74,0.00,,,-99.99,0.000000,,2013-08-25 02:11:00,
2013-08-25 02:22:00,71.0,62.0,-100.00,East,98,1.0,2.0,74,0.00,,,-99.99,0.000000,,2013-08-25 02:22:00,
2013-08-25 02:33:00,71.0,62.0,-100.00,East,98,1.0,2.0,74,0.00,,,-99.99,0.000000,,2013-08-25 02:33:00,
2013-08-25 02:42:00,71.0,62.0,-100.00,East,98,1.0,2.0,74,0.00,,,-99.99,0.000000,,2013-08-25 02:42:00,
2013-08-25 03:11:00,69.0,62.0,-100.00,ENE,71,1.0,2.0,78,0.00,,,-99.99,0.000000,,2013-08-25 03:11:00,
2013-08-25 03:23:00,69.0,62.0,-100.00,ENE,71,1.0,2.0,78,0.00,,,-99.99,0.000000,,2013-08-25 03:23:00,
2013-08-25 03:34:00,69.0,62.0,-100.00,ENE,71,1.0,2.0,78,0.00,,,-99.99,0.000000,,2013-08-25 03:34:00,
2013-08-25 03:44:00,69.0,62.0,-100.00,ENE,71,1.0,2.0,78,0.00,,,-99.99,0.000000,,2013-08-25 03:44:00,
2013-08-25 04:02:00,-999.0,-99.9,-100.00,SE,137,1.0,2.0,-999,-99.99,,,-99.99,0.000000,,2013-08-25 04:02:00,
2013-08-25 04:14:00,68.0,62.0,-100.00,SE,137,1.0,2.0,80,0.00,,,0.00,0.000000,,2013-08-25 04:14:00,
2013-08-25 04:25:00,68.0,62.0,-100.00,SE,137,1.0,2.0,80,0.00,,,0.00,0.000000,,2013-08-25 04:25:00,
2013-08-25 04:34:00,68.0,62.0,-100.00,SE,137,1.0,2.0,80,0.00,,,0.00,0.000000,,2013-08-25 04:34:00,
2013-08-25 04:43:00,68.0,62.0,-100.00,SE,137,1.0,2.0,80,0.00,,,0.00,0.000000,,2013-08-25 04:43:00,
2013-08-25 05:12:00,67.0,60.0,-100.00,North,355,0.0,2.0,79,0.00,,,-99.99,0.000000,,2013-08-25 05:12:00,
2013-08-25 05:23:00,67.0,60.0,-100.00,North,355,0.0,2.0,79,0.00,,,-99.99,0.000000,,2013-08-25 05:23:00,
2013-08-25 05:34:00,67.0,60.0,-100.00,North,355,0.0,2.0,79,0.00,,,-99.99,0.000000,,2013-08-25 05:34:00,
2013-08-25 05:42:00,67.0,60.0,-100.00,North,355,0.0,2.0,79,0.00,,,-99.99,0.000000,,2013-08-25 05:42:00,
2013-08-25 06:12:00,66.0,61.0,-100.00,ESE,116,1.0,2.0,84,0.00,,,0.00,0.000000,,2013-08-25 06:12:00,
2013-08-25 06:22:00,66.0,61.0,-100.00,ESE,116,1.0,2.0,84,0.00,,,0.00,0.000000,,2013-08-25 06:22:00,
2013-08-25 06:32:00,66.0,61.0,-100.00,ESE,116,1.0,2.0,84,0.00,,,0.00,0.000000,,2013-08-25 06:32:00,
2013-08-25 06:43:00,66.0,61.0,-100.00,ESE,116,1.0,2.0,84,0.00,,,0.00,0.000000,,2013-08-25 06:43:00,
2013-08-25 07:12:00,65.0,60.0,-100.00,ESE,116,1.0,2.0,83,0.00,,,0.00,0.000000,,2013-08-25 07:12:00,
2013-08-25 07:22:00,65.0,60.0,-100.00,ESE,116,1.0,2.0,83,0.00,,,0.00,0.000000,,2013-08-25 07:22:00,
2013-08-25 07:32:00,65.0,60.0,-100.00,ESE,116,1.0,2.0,83,0.00,,,0.00,0.000000,,2013-08-25 07:32:00,
2013-08-25 07:42:00,65.0,60.0,-100.00,ESE,116,1.0,2.0,83,0.00,,,0.00,0.000000,,2013-08-25 07:42:00,
2013-08-25 08:12:00,63.0,59.0,-100.00,SE,143,1.0,3.0,86,0.00,,,0.00,0.000000,,2013-08-25 08:12:00,
2013-08-25 08:21:00,63.0,59.0,-100.00,SE,143,1.0,3.0,86,0.00,,,0.00,0.000000,,2013-08-25 08:21:00,
2013-08-25 08:32:00,63.0,59.0,-100.00,SE,143,1.0,3.0,86,0.00,,,0.00,0.000000,,2013-08-25 08:32:00,
2013-08-25 08:42:00,63.0,59.0,-100.00,SE,143,1.0,3.0,86,0.00,,,0.00,0.000000,,2013-08-25 08:42:00,
2013-08-25 09:11:00,63.0,59.0,-100.00,East,82,2.0,-999.0,86,0.00,,,0.00,,,2013-08-25 09:11:00,
2013-08-25 09:22:00,63.0,59.0,-100.00,East,82,2.0,-999.0,86,0.00,,,0.00,,,2013-08-25 09:22:00,
2013-08-25 09:34:00,63.0,59.0,-100.00,East,82,2.0,-999.0,86,0.00,,,0.00,,,2013-08-25 09:34:00,
2013-08-25 09:44:00,63.0,59.0,-100.00,East,82,2.0,-999.0,86,0.00,,,0.00,,,2013-08-25 09:44:00,
2013-08-25 12:12:00,62.0,59.0,-100.00,ESE,116,1.0,2.0,91,-99.99,,,-99.99,4.000000,,2013-08-25 12:12:00,
2013-08-25 12:22:00,62.0,59.0,-100.00,ESE,116,1.0,2.0,91,-99.99,,,-99.99,4.000000,,2013-08-25 12:22:00,
2013-08-25 12:32:00,62.0,59.0,-100.00,ESE,116,1.0,2.0,91,-99.99,,,-99.99,4.000000,,2013-08-25 12:32:00,
2013-08-25 12:43:00,62.0,59.0,-100.00,ESE,116,1.0,2.0,91,-99.99,,,-99.99,4.000000,,2013-08-25 12:43:00,
2013-08-25 14:11:00,69.0,64.0,-100.00,SE,143,1.0,3.0,84,-99.99,,,0.00,47.000000,,2013-08-25 14:11:00,
2013-08-25 14:25:00,69.0,64.0,-100.00,SE,143,1.0,3.0,84,-99.99,,,0.00,47.000000,,2013-08-25 14:25:00,
2013-08-25 14:32:00,69.0,64.0,-100.00,SE,143,1.0,3.0,84,-99.99,,,0.00,47.000000,,2013-08-25 14:32:00,
2013-08-25 14:42:00,69.0,64.0,-100.00,SE,143,1.0,3.0,84,-99.99,,,0.00,47.000000,,2013-08-25 14:42:00,
2013-08-25 16:14:00,83.0,65.0,-100.00,SSW,194,3.0,5.0,54,-99.99,,,0.00,641.000000,,2013-08-25 16:14:00,
2013-08-25 16:24:00,83.0,65.0,-100.00,SSW,194,3.0,5.0,54,-99.99,,,0.00,641.000000,,2013-08-25 16:24:00,
2013-08-25 16:33:00,83.0,65.0,-100.00,SSW,194,3.0,5.0,54,-99.99,,,0.00,641.000000,,2013-08-25 16:33:00,
2013-08-25 16:44:00,83.0,65.0,-100.00,SSW,194,3.0,5.0,54,-99.99,,,0.00,641.000000,,2013-08-25 16:44:00,
2013-08-25 17:11:00,86.0,62.0,-100.00,SSE,150,3.0,5.0,45,0.00,,,0.00,754.000000,,2013-08-25 17:11:00,
2013-08-25 17:23:00,86.0,62.0,-100.00,SSE,150,3.0,5.0,45,0.00,,,0.00,754.000000,,2013-08-25 17:23:00,
2013-08-25 17:34:00,86.0,62.0,-100.00,SSE,150,3.0,5.0,45,0.00,,,0.00,754.000000,,2013-08-25 17:34:00,
2013-08-25 17:43:00,86.0,62.0,-100.00,SSE,150,3.0,5.0,45,0.00,,,0.00,754.000000,,2013-08-25 17:43:00,
2013-08-25 18:12:00,89.0,63.0,-100.00,ENE,76,2.0,6.0,42,0.00,,,0.00,821.000000,,2013-08-25 18:12:00,
2013-08-25 18:22:00,89.0,63.0,-100.00,ENE,76,2.0,6.0,42,0.00,,,0.00,821.000000,,2013-08-25 18:22:00,
2013-08-25 18:32:00,89.0,63.0,-100.00,ENE,76,2.0,6.0,42,0.00,,,0.00,821.000000,,2013-08-25 18:32:00,
2013-08-25 18:43:00,89.0,63.0,-100.00,ENE,76,2.0,6.0,42,0.00,,,0.00,821.000000,,2013-08-25 18:43:00,
2013-08-25 19:11:00,89.0,61.0,-100.00,SW,234,2.0,6.0,40,0.00,,,0.00,824.000000,,2013-08-25 19:11:00,
2013-08-25 19:22:00,89.0,61.0,-100.00,SW,234,2.0,6.0,40,0.00,,,0.00,824.000000,,2013-08-25 19:22:00,
2013-08-25 19:32:00,89.0,61.0,-100.00,SW,234,2.0,6.0,40,0.00,,,0.00,824.000000,,2013-08-25 19:32:00,
2013-08-25 19:42:00,89.0,61.0,-100.00,SW,234,2.0,6.0,40,0.00,,,0.00,824.000000,,2013-08-25 19:42:00,
2013-08-25 20:12:00,89.0,61.0,-100.00,SSE,149,3.0,6.0,39,0.00,,,0.00,761.000000,,2013-08-25 20:12:00,
2013-08-25 20:23:00,89.0,61.0,-100.00,SSE,149,3.0,6.0,39,0.00,,,0.00,761.000000,,2013-08-25 20:23:00,
2013-08-25 20:33:00,89.0,61.0,-100.00,SSE,149,3.0,6.0,39,0.00,,,0.00,761.000000,,2013-08-25 20:33:00,
2013-08-25 20:43:00,89.0,61.0,-100.00,SSE,149,3.0,6.0,39,0.00,,,0.00,761.000000,,2013-08-25 20:43:00,
2013-08-25 21:12:00,89.0,62.0,-100.00,South,169,2.0,4.0,41,0.00,,,0.00,661.000000,,2013-08-25 21:12:00,
2013-08-25 21:22:00,89.0,62.0,-100.00,South,169,2.0,4.0,41,0.00,,,0.00,661.000000,,2013-08-25 21:22:00,
2013-08-25 21:34:00,89.0,62.0,-100.00,South,169,2.0,4.0,41,0.00,,,0.00,661.000000,,2013-08-25 21:34:00,
2013-08-25 21:43:00,89.0,62.0,-100.00,South,169,2.0,4.0,41,0.00,,,0.00,661.000000,,2013-08-25 21:43:00,
2013-08-25 22:14:00,87.0,60.0,-100.00,SSE,155,2.0,4.0,41,0.00,,,0.00,510.000000,,2013-08-25 22:14:00,
2013-08-25 22:24:00,87.0,60.0,-100.00,SSE,155,2.0,4.0,41,0.00,,,0.00,510.000000,,2013-08-25 22:24:00,
2013-08-25 22:34:00,87.0,60.0,-100.00,SSE,155,2.0,4.0,41,0.00,,,0.00,510.000000,,2013-08-25 22:34:00,
2013-08-25 22:43:00,87.0,60.0,-100.00,SSE,155,2.0,4.0,41,0.00,,,0.00,510.000000,,2013-08-25 22:43:00,
2013-08-25 23:12:00,84.0,63.0,-100.00,ENE,77,2.0,3.0,50,0.00,,,0.00,194.000000,,2013-08-25 23:12:00,
2013-08-25 23:23:00,84.0,63.0,-100.00,ENE,77,2.0,3.0,50,0.00,,,0.00,194.000000,,2013-08-25 23:23:00,
2013-08-25 23:34:00,84.0,63.0,-100.00,ENE,77,2.0,3.0,50,0.00,,,0.00,194.000000,,2013-08-25 23:34:00,
2013-08-25 23:43:00,84.0,63.0,-100.00,ENE,77,2.0,3.0,50,0.00,,,0.00,194.000000,,2013-08-25 23:43:00,